createdAt,value
2022-12-20T00:01:52.158Z,14.80
2022-12-20T00:04:38.065Z,14.70
2022-12-20T00:07:23.522Z,14.80
2022-12-20T00:10:09.273Z,14.80
2022-12-20T00:12:55.223Z,14.80
2022-12-20T00:15:41.138Z,14.80
2022-12-20T00:18:26.595Z,14.90
2022-12-20T00:21:14.364Z,14.90
2022-12-20T00:24:00.328Z,15.00
2022-12-20T00:26:46.165Z,14.90
2022-12-20T00:29:31.549Z,15.00
2022-12-20T00:32:17.087Z,14.80
2022-12-20T00:35:02.461Z,14.80
2022-12-20T00:37:47.941Z,14.80
2022-12-20T00:40:33.363Z,14.80
2022-12-20T00:43:18.864Z,14.80
2022-12-20T00:46:05.235Z,14.80
2022-12-20T00:48:52.439Z,14.70
2022-12-20T00:51:37.950Z,14.80
2022-12-20T00:54:23.444Z,14.60
2022-12-20T00:57:08.875Z,14.70
2022-12-20T00:59:54.341Z,14.70
2022-12-20T01:02:39.819Z,14.70
2022-12-20T01:05:25.776Z,14.70
2022-12-20T01:08:11.330Z,14.80
2022-12-20T01:11:04.581Z,14.70
2022-12-20T01:13:52.949Z,14.70
2022-12-20T01:16:44.992Z,14.70
2022-12-20T01:19:33.330Z,14.60
2022-12-20T01:22:19.278Z,14.70
2022-12-20T01:25:06.453Z,14.80
2022-12-20T01:27:52.061Z,14.80
2022-12-20T01:30:41.444Z,14.70
2022-12-20T01:33:27.495Z,14.70
2022-12-20T01:36:17.913Z,14.70
2022-12-20T01:39:08.681Z,14.70
2022-12-20T01:41:55.076Z,14.80
2022-12-20T01:44:44.132Z,14.80
2022-12-20T01:47:34.676Z,14.70
2022-12-20T01:50:20.238Z,14.70
2022-12-20T01:53:06.118Z,14.70
2022-12-20T01:55:52.513Z,14.70
2022-12-20T01:58:39.489Z,14.80
2022-12-20T02:01:25.803Z,14.80
2022-12-20T02:04:13.589Z,14.90
2022-12-20T02:07:00.448Z,14.90
2022-12-20T02:09:46.667Z,14.90
2022-12-20T02:12:41.259Z,14.90
2022-12-20T02:15:56.185Z,14.90
2022-12-20T02:18:53.087Z,15.00
2022-12-20T02:21:57.444Z,15.00
2022-12-20T02:24:49.136Z,15.00
2022-12-20T02:28:02.048Z,14.90
2022-12-20T02:30:52.581Z,15.00
2022-12-20T02:33:42.802Z,15.10
2022-12-20T02:36:28.261Z,15.10
2022-12-20T02:39:17.200Z,15.10
2022-12-20T02:42:20.675Z,15.00
2022-12-20T02:45:18.120Z,15.10
2022-12-20T02:48:10.821Z,15.40
2022-12-20T02:50:59.158Z,15.00
2022-12-20T02:53:45.014Z,15.00
2022-12-20T02:56:43.041Z,15.10
2022-12-20T02:59:34.479Z,15.10
2022-12-20T03:02:23.302Z,15.10
2022-12-20T03:05:09.161Z,15.00
2022-12-20T03:07:55.570Z,15.10
2022-12-20T03:10:44.405Z,15.10
2022-12-20T03:13:30.652Z,15.20
2022-12-20T03:16:23.159Z,15.20
2022-12-20T03:19:08.618Z,15.10
2022-12-20T03:21:54.338Z,15.20
2022-12-20T03:24:39.954Z,15.10
2022-12-20T03:27:31.081Z,15.20
2022-12-20T03:30:17.661Z,15.20
2022-12-20T03:33:03.561Z,15.20
2022-12-20T03:35:49.832Z,15.30
2022-12-20T03:38:37.345Z,15.30
2022-12-20T03:41:25.869Z,15.20
2022-12-20T03:44:12.229Z,15.20
2022-12-20T03:46:58.087Z,15.20
2022-12-20T03:49:43.734Z,15.10
2022-12-20T03:52:30.298Z,15.20
2022-12-20T03:55:15.818Z,15.20
2022-12-20T03:58:03.976Z,15.30
2022-12-20T04:00:52.354Z,15.20
2022-12-20T04:03:55.467Z,15.20
2022-12-20T04:06:40.984Z,15.20
2022-12-20T04:09:27.363Z,15.20
2022-12-20T04:12:19.247Z,15.20
2022-12-20T04:15:05.148Z,15.10
2022-12-20T04:17:51.544Z,15.10
2022-12-20T04:20:38.241Z,15.10
2022-12-20T04:23:38.036Z,15.10
2022-12-20T04:26:24.339Z,15.10
2022-12-20T04:29:10.206Z,14.90
2022-12-20T04:31:57.670Z,14.90
2022-12-20T04:34:43.568Z,14.90
2022-12-20T04:37:30.624Z,14.90
2022-12-20T04:40:16.585Z,15.00
2022-12-20T04:43:06.427Z,14.90
2022-12-20T04:45:56.262Z,15.00
2022-12-20T04:48:57.100Z,14.90
2022-12-20T04:51:44.676Z,15.00
2022-12-20T04:54:32.655Z,15.10
2022-12-20T04:57:30.611Z,15.10
2022-12-20T05:00:17.385Z,15.20
2022-12-20T05:03:08.903Z,15.00
2022-12-20T05:05:55.106Z,15.10
2022-12-20T05:08:42.126Z,15.00
2022-12-20T05:11:27.764Z,15.00
2022-12-20T05:14:13.275Z,15.00
2022-12-20T05:16:58.813Z,15.10
2022-12-20T05:19:46.400Z,15.00
2022-12-20T05:22:52.563Z,15.00
2022-12-20T05:26:15.108Z,15.00
2022-12-20T05:29:01.177Z,15.00
2022-12-20T05:31:47.573Z,14.90
2022-12-20T05:34:34.628Z,14.80
2022-12-20T05:37:20.094Z,14.80
2022-12-20T05:40:06.458Z,14.80
2022-12-20T05:42:52.422Z,14.80
2022-12-20T05:45:39.484Z,14.80
2022-12-20T05:48:32.159Z,14.80
2022-12-20T05:51:18.297Z,14.90
2022-12-20T05:54:19.673Z,15.00
2022-12-20T05:57:16.207Z,15.10
2022-12-20T06:00:02.707Z,15.20
2022-12-20T06:02:50.842Z,15.30
2022-12-20T06:05:38.047Z,15.40
2022-12-20T06:08:24.740Z,15.40
2022-12-20T06:11:11.727Z,15.40
2022-12-20T06:14:07.752Z,15.50
2022-12-20T06:16:55.721Z,15.50
2022-12-20T06:19:42.044Z,15.50
2022-12-20T06:22:29.728Z,15.50
2022-12-20T06:25:16.443Z,15.50
2022-12-20T06:28:02.156Z,15.60
2022-12-20T06:30:56.005Z,15.60
2022-12-20T06:34:07.931Z,16.50
2022-12-20T06:36:57.661Z,15.60
2022-12-20T06:39:46.785Z,15.60
2022-12-20T06:42:33.287Z,15.60
2022-12-20T06:45:18.852Z,15.60
2022-12-20T06:48:05.223Z,15.60
2022-12-20T06:50:56.042Z,15.70
2022-12-20T06:53:43.334Z,15.70
2022-12-20T06:56:29.181Z,15.70
2022-12-20T06:59:15.394Z,15.70
2022-12-20T07:02:01.184Z,15.70
2022-12-20T07:04:47.984Z,15.70
2022-12-20T07:07:38.577Z,15.80
2022-12-20T07:10:30.332Z,15.70
2022-12-20T07:13:17.885Z,15.70
2022-12-20T07:16:05.044Z,15.80
2022-12-20T07:18:55.672Z,14.60
2022-12-20T07:21:41.638Z,15.90
2022-12-20T07:24:27.009Z,15.90
2022-12-20T07:27:12.498Z,15.90
2022-12-20T07:29:58.703Z,15.90
2022-12-20T07:32:44.141Z,15.90
2022-12-20T07:35:29.516Z,16.00
2022-12-20T07:38:19.296Z,16.00
2022-12-20T07:41:15.725Z,16.00
2022-12-20T07:44:05.702Z,16.00
2022-12-20T07:46:56.238Z,16.00
2022-12-20T07:49:48.879Z,16.00
2022-12-20T07:52:42.064Z,16.00
2022-12-20T07:55:34.673Z,16.10
2022-12-20T07:58:26.413Z,16.20
2022-12-20T08:01:18.788Z,16.20
2022-12-20T08:04:24.008Z,16.20
2022-12-20T08:07:18.717Z,16.20
2022-12-20T08:10:15.234Z,16.10
2022-12-20T08:13:03.662Z,16.10
2022-12-20T08:15:52.909Z,16.00
2022-12-20T08:18:42.416Z,16.10
2022-12-20T08:21:34.654Z,16.00
2022-12-20T08:24:24.682Z,16.10
2022-12-20T08:27:19.010Z,16.10
2022-12-20T08:30:12.006Z,16.10
2022-12-20T08:33:01.761Z,16.10
2022-12-20T08:36:00.768Z,16.20
2022-12-20T08:38:53.988Z,16.10
2022-12-20T08:41:45.460Z,16.10
2022-12-20T08:44:42.486Z,16.10
2022-12-20T08:47:36.024Z,16.10
2022-12-20T08:50:32.089Z,16.10
2022-12-20T08:53:26.523Z,16.10
2022-12-20T08:56:23.790Z,16.00
2022-12-20T08:59:19.211Z,16.00
2022-12-20T09:02:23.617Z,16.00
2022-12-20T09:05:18.033Z,16.00
2022-12-20T09:08:14.670Z,16.00
2022-12-20T09:11:26.933Z,16.00
2022-12-20T09:14:21.304Z,16.00
2022-12-20T09:17:15.399Z,16.00
2022-12-20T09:20:08.572Z,16.00
2022-12-20T09:23:03.833Z,16.10
2022-12-20T09:25:57.662Z,16.10
2022-12-20T09:28:55.155Z,16.10
2022-12-20T09:31:50.091Z,16.20
2022-12-20T09:34:41.945Z,16.20
2022-12-20T09:37:35.064Z,16.20
2022-12-20T09:40:36.393Z,16.30
2022-12-20T09:43:32.824Z,16.30
2022-12-20T09:46:30.284Z,16.40
2022-12-20T09:49:32.158Z,16.50
2022-12-20T09:52:39.057Z,16.40
2022-12-20T09:55:48.202Z,16.50
2022-12-20T09:58:56.388Z,16.50
2022-12-20T10:01:52.810Z,16.50
2022-12-20T10:04:46.549Z,16.40
2022-12-20T10:08:07.335Z,16.40
2022-12-20T10:11:11.651Z,16.50
2022-12-20T10:14:19.476Z,16.50
2022-12-20T10:17:38.636Z,16.50
2022-12-20T10:20:45.332Z,16.40
2022-12-20T10:24:08.929Z,16.40
2022-12-20T10:27:18.277Z,16.40
2022-12-20T10:30:18.195Z,16.30
2022-12-20T10:33:16.121Z,16.30
2022-12-20T10:36:32.128Z,16.30
2022-12-20T10:39:53.265Z,16.20
2022-12-20T10:42:50.666Z,16.30
2022-12-20T10:45:48.469Z,16.30
2022-12-20T10:48:47.969Z,16.40
2022-12-20T10:51:57.211Z,16.30
2022-12-20T10:54:52.425Z,16.30
2022-12-20T10:57:50.618Z,16.30
2022-12-20T11:00:45.113Z,16.40
2022-12-20T11:03:54.833Z,16.30
2022-12-20T11:06:48.484Z,16.30
2022-12-20T11:09:45.925Z,16.30
2022-12-20T11:12:39.185Z,16.30
2022-12-20T11:15:44.849Z,16.30
2022-12-20T11:18:55.090Z,16.40
2022-12-20T11:22:11.657Z,18.80
2022-12-20T11:25:11.068Z,16.30
2022-12-20T11:28:27.380Z,16.30
2022-12-20T11:31:44.774Z,16.30
2022-12-20T11:35:00.816Z,16.20
2022-12-20T11:38:16.218Z,16.20
2022-12-20T11:41:23.492Z,16.20
2022-12-20T11:44:32.942Z,16.20
2022-12-20T11:47:45.400Z,16.30
2022-12-20T11:50:57.218Z,16.30
2022-12-20T11:54:09.619Z,16.40
2022-12-20T11:57:15.312Z,16.40
2022-12-20T12:00:18.903Z,16.30
2022-12-20T12:03:24.541Z,16.30
2022-12-20T12:06:27.882Z,16.40
2022-12-20T12:09:50.876Z,16.40
2022-12-20T12:12:44.560Z,16.60
2022-12-20T12:16:06.150Z,16.50
2022-12-20T12:19:05.005Z,16.50
2022-12-20T12:22:10.544Z,16.50
2022-12-20T12:25:12.986Z,16.50
2022-12-20T12:28:11.778Z,16.60
2022-12-20T12:31:14.746Z,16.60
2022-12-20T12:34:42.646Z,16.50
2022-12-20T12:38:24.029Z,16.50
2022-12-20T12:41:41.310Z,16.40
2022-12-20T12:44:57.414Z,16.30
2022-12-20T12:47:57.170Z,16.30
2022-12-20T12:50:57.429Z,16.30
2022-12-20T12:54:08.507Z,16.30
2022-12-20T12:57:25.701Z,16.30
2022-12-20T13:00:59.214Z,16.30
2022-12-20T13:04:00.868Z,16.30
2022-12-20T13:06:56.142Z,16.30
2022-12-20T13:09:51.155Z,16.30
2022-12-20T13:12:46.376Z,16.30
2022-12-20T13:15:52.189Z,16.30
2022-12-20T13:19:00.540Z,16.30
2022-12-20T13:21:58.172Z,16.30
2022-12-20T13:24:48.584Z,16.30
2022-12-20T13:27:42.084Z,16.30
2022-12-20T13:30:28.440Z,16.20
2022-12-20T13:33:23.855Z,16.20
2022-12-20T13:36:09.632Z,16.10
2022-12-20T13:38:56.910Z,16.10
2022-12-20T13:41:49.163Z,16.10
2022-12-20T13:44:54.596Z,16.10
2022-12-20T13:47:51.211Z,16.10
2022-12-20T13:50:40.647Z,16.20
2022-12-20T13:53:27.952Z,16.10
2022-12-20T13:56:28.841Z,16.10
2022-12-20T13:59:26.977Z,16.10
2022-12-20T14:02:26.734Z,16.10
2022-12-20T14:05:36.766Z,16.20
2022-12-20T14:08:26.885Z,16.20
2022-12-20T14:11:32.163Z,16.20
2022-12-20T14:14:17.795Z,16.20
2022-12-20T14:17:39.856Z,16.20
2022-12-20T14:20:33.728Z,16.20
2022-12-20T14:23:36.476Z,16.20
2022-12-20T14:26:30.662Z,16.30
2022-12-20T14:29:19.780Z,16.20
2022-12-20T14:32:06.339Z,16.30
2022-12-20T14:34:53.888Z,16.30
2022-12-20T14:37:41.282Z,16.20
2022-12-20T14:40:27.553Z,16.30
2022-12-20T14:43:25.088Z,16.30
2022-12-20T14:46:20.364Z,16.30
2022-12-20T14:49:16.120Z,16.40
2022-12-20T14:52:20.741Z,16.40
2022-12-20T14:55:14.895Z,16.30
2022-12-20T14:58:05.907Z,16.30
2022-12-20T15:01:03.870Z,16.30
2022-12-20T15:03:57.415Z,16.30
2022-12-20T15:06:48.109Z,16.40
2022-12-20T15:09:34.044Z,16.40
2022-12-20T15:12:19.536Z,16.30
2022-12-20T15:15:27.675Z,16.40
2022-12-20T15:18:16.469Z,16.40
2022-12-20T15:21:12.791Z,16.40
2022-12-20T15:24:02.254Z,16.40
2022-12-20T15:26:49.234Z,16.40
2022-12-20T15:29:35.800Z,16.40
2022-12-20T15:32:29.696Z,16.40
2022-12-20T15:35:16.454Z,16.40
2022-12-20T15:38:02.026Z,16.40
2022-12-20T15:40:49.827Z,16.40
2022-12-20T15:43:39.195Z,16.40
2022-12-20T15:46:25.042Z,16.50
2022-12-20T15:49:17.766Z,16.40
2022-12-20T15:52:03.673Z,16.50
2022-12-20T15:54:49.818Z,16.40
2022-12-20T15:57:35.583Z,16.40
2022-12-20T16:00:21.285Z,16.50
2022-12-20T16:03:15.615Z,16.40
2022-12-20T16:06:01.179Z,16.50
2022-12-20T16:08:46.842Z,16.40
2022-12-20T16:11:32.736Z,16.50
2022-12-20T16:14:23.651Z,19.20
2022-12-20T16:17:16.967Z,16.40
2022-12-20T16:20:02.661Z,16.40
2022-12-20T16:22:48.355Z,16.50
2022-12-20T16:25:36.784Z,16.40
2022-12-20T16:28:22.080Z,16.50
2022-12-20T16:31:32.055Z,16.40
2022-12-20T16:34:18.711Z,16.40
2022-12-20T16:37:04.986Z,16.40
2022-12-20T16:39:50.351Z,16.40
2022-12-20T16:42:35.705Z,16.40
2022-12-20T16:45:24.186Z,16.40
2022-12-20T16:48:09.715Z,16.40
2022-12-20T16:50:55.460Z,16.40
2022-12-20T16:54:09.791Z,16.40
2022-12-20T16:56:55.102Z,16.30
2022-12-20T16:59:40.676Z,16.30
2022-12-20T17:02:33.258Z,16.30
2022-12-20T17:05:28.878Z,16.30
2022-12-20T17:11:20.786Z,14.70
2022-12-20T17:14:12.381Z,16.40
2022-12-20T17:16:58.626Z,16.40
2022-12-20T17:19:44.740Z,16.40
2022-12-20T17:22:30.533Z,16.30
2022-12-20T17:25:26.059Z,16.20
2022-12-20T17:28:11.403Z,16.30
2022-12-20T17:31:01.026Z,16.30
2022-12-20T17:33:49.737Z,16.20
2022-12-20T17:36:38.007Z,16.30
2022-12-20T17:39:25.215Z,16.20
2022-12-20T17:42:14.383Z,16.30
2022-12-20T17:45:00.035Z,16.20
2022-12-20T17:47:45.828Z,16.20
2022-12-20T17:50:31.583Z,16.30
2022-12-20T17:53:16.942Z,16.30
2022-12-20T17:56:02.644Z,16.30
2022-12-20T17:58:48.664Z,16.30
2022-12-20T18:01:36.062Z,16.30
2022-12-20T18:04:21.968Z,16.30
2022-12-20T18:07:09.338Z,16.30
2022-12-20T18:09:55.111Z,16.30
2022-12-20T18:12:40.705Z,16.30
2022-12-20T18:15:26.103Z,16.30
2022-12-20T18:18:11.608Z,16.30
2022-12-20T18:21:05.474Z,16.30
2022-12-20T18:23:52.213Z,16.30
2022-12-20T18:26:38.041Z,16.40
2022-12-20T18:29:23.690Z,16.30
2022-12-20T18:32:10.078Z,16.40
2022-12-20T18:34:55.835Z,16.40
2022-12-20T18:37:41.439Z,16.40
2022-12-20T18:40:26.824Z,16.40
2022-12-20T18:43:12.278Z,16.50
2022-12-20T18:46:04.429Z,16.50
2022-12-20T18:48:54.633Z,16.50
2022-12-20T18:51:40.425Z,16.50
2022-12-20T18:54:26.254Z,16.50
2022-12-20T18:57:12.048Z,16.40
2022-12-20T18:59:57.501Z,16.50
2022-12-20T19:02:43.760Z,16.50
2022-12-20T19:05:33.293Z,16.50
2022-12-20T19:08:19.420Z,16.50
2022-12-20T19:11:08.881Z,16.40
2022-12-20T19:13:55.047Z,16.50
2022-12-20T19:16:41.279Z,16.50
2022-12-20T19:19:26.653Z,16.50
2022-12-20T19:22:12.187Z,16.50
2022-12-20T19:24:58.025Z,16.50
2022-12-20T19:27:43.603Z,16.50
2022-12-20T19:30:30.145Z,16.50
2022-12-20T19:33:16.001Z,16.50
2022-12-20T19:36:15.023Z,16.50
2022-12-20T19:39:02.011Z,16.30
2022-12-20T19:42:19.048Z,16.10
2022-12-20T19:44:54.265Z,15.90
2022-12-20T19:47:40.529Z,15.80
2022-12-20T19:50:26.043Z,15.60
2022-12-20T19:53:11.622Z,15.50
2022-12-20T19:55:57.084Z,15.40
2022-12-20T19:58:43.633Z,15.20
2022-12-20T20:01:29.643Z,15.10
2022-12-20T20:04:15.379Z,15.00
2022-12-20T20:07:02.443Z,15.00
2022-12-20T20:09:48.139Z,15.00
2022-12-20T20:12:34.113Z,14.90
2022-12-20T20:15:19.544Z,14.90
2022-12-20T20:18:05.122Z,14.80
2022-12-20T20:20:50.762Z,14.80
2022-12-20T20:23:37.267Z,14.80
2022-12-20T20:26:26.423Z,14.80
2022-12-20T20:29:11.896Z,14.70
2022-12-20T20:31:57.573Z,14.70
2022-12-20T20:34:44.082Z,14.70
2022-12-20T20:37:29.559Z,14.70
2022-12-20T20:40:15.541Z,14.70
2022-12-20T20:43:02.278Z,14.60
2022-12-20T20:45:48.573Z,14.50
2022-12-20T20:48:35.318Z,14.50
2022-12-20T20:51:20.649Z,14.40
2022-12-20T20:54:06.150Z,14.50
2022-12-20T20:56:51.602Z,14.40
2022-12-20T20:59:37.173Z,14.40
2022-12-20T21:02:24.480Z,14.40
2022-12-20T21:06:00.130Z,14.50
2022-12-20T21:08:15.963Z,14.50
2022-12-20T21:11:07.929Z,14.50
2022-12-20T21:13:53.916Z,14.50
2022-12-20T21:16:42.808Z,14.50
2022-12-20T21:19:28.202Z,14.50
2022-12-20T21:22:13.737Z,14.50
2022-12-20T21:25:00.394Z,14.40
2022-12-20T21:27:46.122Z,14.40
2022-12-20T21:30:31.840Z,14.40
2022-12-20T21:33:17.427Z,14.30
2022-12-20T21:36:06.436Z,14.30
2022-12-20T21:38:54.336Z,14.30
2022-12-20T21:41:39.972Z,14.40
2022-12-20T21:44:25.484Z,14.30
2022-12-20T21:47:11.341Z,14.20
2022-12-20T21:49:57.444Z,14.20
2022-12-20T21:52:42.922Z,14.20
2022-12-20T21:55:28.379Z,14.20
2022-12-20T21:58:13.851Z,14.20
2022-12-20T22:00:59.691Z,14.10
2022-12-20T22:03:45.648Z,14.10
2022-12-20T22:06:32.494Z,14.10
2022-12-20T22:09:17.846Z,14.10
2022-12-20T22:12:03.388Z,14.20
2022-12-20T22:14:48.937Z,14.20
2022-12-20T22:17:34.424Z,14.20
2022-12-20T22:20:20.003Z,14.20
2022-12-20T22:23:05.528Z,14.20
2022-12-20T22:25:50.901Z,14.10
2022-12-20T22:28:37.689Z,14.20
2022-12-20T22:31:24.538Z,14.20
2022-12-20T22:34:10.331Z,14.20
2022-12-20T22:36:56.214Z,14.10
2022-12-20T22:39:41.860Z,14.10
2022-12-20T22:42:27.740Z,14.10
2022-12-20T22:45:13.829Z,14.10
2022-12-20T22:47:59.116Z,14.20
2022-12-20T22:50:44.619Z,14.20
2022-12-20T22:53:31.758Z,14.20
2022-12-20T22:56:19.594Z,14.20
2022-12-20T22:59:06.361Z,14.10
2022-12-20T23:01:52.021Z,14.10
2022-12-20T23:04:37.597Z,14.00
2022-12-20T23:07:23.224Z,14.00
2022-12-20T23:10:29.433Z,14.10
2022-12-20T23:13:33.871Z,14.00
2022-12-20T23:16:19.891Z,14.00
2022-12-20T23:19:05.665Z,14.00
2022-12-20T23:22:09.736Z,14.10
2022-12-20T23:24:55.239Z,14.00
2022-12-20T23:27:42.562Z,14.00
2022-12-20T23:30:27.878Z,14.00
2022-12-20T23:33:13.414Z,14.00
2022-12-20T23:36:03.521Z,14.10
2022-12-20T23:38:49.269Z,14.00
2022-12-20T23:41:35.458Z,14.00
2022-12-20T23:44:21.271Z,14.00
2022-12-20T23:47:06.698Z,14.00
2022-12-20T23:49:52.327Z,14.00
2022-12-20T23:52:37.706Z,14.10
2022-12-20T23:55:23.188Z,14.00
2022-12-20T23:58:08.698Z,13.90
